createdAt,value
2023-02-05T00:00:02.350Z,55.61
2023-02-05T00:02:32.245Z,55.63
2023-02-05T00:04:59.799Z,55.63
2023-02-05T00:07:27.691Z,55.05
2023-02-05T00:09:55.163Z,54.98
2023-02-05T00:12:22.680Z,54.92
2023-02-05T00:14:50.391Z,55.23
2023-02-05T00:17:17.905Z,55.49
2023-02-05T00:19:45.498Z,55.46
2023-02-05T00:22:12.995Z,55.38
2023-02-05T00:24:40.520Z,55.51
2023-02-05T00:27:08.361Z,54.59
2023-02-05T00:29:36.020Z,54.70
2023-02-05T00:32:03.742Z,54.06
2023-02-05T00:34:31.436Z,54.15
2023-02-05T00:36:58.917Z,53.86
2023-02-05T00:39:26.372Z,54.08
2023-02-05T00:41:53.984Z,52.88
2023-02-05T00:44:21.477Z,52.55
2023-02-05T00:46:48.893Z,52.07
2023-02-05T00:49:16.441Z,52.47
2023-02-05T00:51:43.990Z,53.02
2023-02-05T00:54:11.639Z,52.58
2023-02-05T00:56:39.077Z,52.15
2023-02-05T00:59:06.614Z,52.13
2023-02-05T01:01:34.163Z,52.07
2023-02-05T01:04:01.726Z,52.28
2023-02-05T01:06:29.452Z,51.62
2023-02-05T01:08:56.967Z,51.51
2023-02-05T01:11:24.477Z,50.98
2023-02-05T01:13:51.931Z,50.86
2023-02-05T01:16:19.577Z,50.83
2023-02-05T01:18:47.170Z,51.34
2023-02-05T01:21:14.727Z,50.89
2023-02-05T01:23:42.269Z,50.19
2023-02-05T01:26:09.707Z,50.25
2023-02-05T01:28:37.167Z,49.76
2023-02-05T01:31:04.800Z,49.37
2023-02-05T01:33:32.433Z,49.45
2023-02-05T01:35:59.991Z,50.99
2023-02-05T01:38:27.425Z,51.78
2023-02-05T01:40:54.967Z,52.44
2023-02-05T01:43:22.534Z,51.74
2023-02-05T01:46:11.171Z,52.17
2023-02-05T01:48:44.675Z,51.79
2023-02-05T01:51:15.150Z,51.87
2023-02-05T01:53:47.283Z,51.80
2023-02-05T01:56:24.509Z,52.05
2023-02-05T01:58:57.238Z,51.97
2023-02-05T02:01:26.932Z,52.18
2023-02-05T02:03:58.463Z,52.31
2023-02-05T02:06:26.045Z,52.70
2023-02-05T02:08:53.853Z,51.90
2023-02-05T02:11:23.671Z,52.25
2023-02-05T02:13:55.185Z,52.13
2023-02-05T02:16:25.216Z,51.33
2023-02-05T02:18:55.685Z,51.31
2023-02-05T02:21:51.829Z,51.65
2023-02-05T02:24:25.030Z,51.33
2023-02-05T02:27:22.914Z,51.86
2023-02-05T02:30:04.880Z,51.54
2023-02-05T02:32:43.966Z,51.47
2023-02-05T02:35:17.623Z,51.38
2023-02-05T02:38:08.333Z,50.57
2023-02-05T02:40:42.801Z,49.24
2023-02-05T02:43:25.741Z,49.01
2023-02-05T02:46:01.822Z,48.78
2023-02-05T02:48:32.552Z,48.08
2023-02-05T02:51:02.535Z,48.01
2023-02-05T02:53:36.308Z,48.58
2023-02-05T02:56:06.014Z,48.23
2023-02-05T02:58:47.205Z,48.10
2023-02-05T03:01:17.819Z,47.80
2023-02-05T03:03:51.816Z,47.78
2023-02-05T03:06:23.280Z,47.81
2023-02-05T03:09:07.699Z,48.66
2023-02-05T03:11:35.366Z,48.31
2023-02-05T03:14:03.074Z,48.38
2023-02-05T03:16:35.515Z,48.17
2023-02-05T03:19:05.794Z,48.02
2023-02-05T03:21:43.013Z,48.05
2023-02-05T03:24:11.297Z,48.05
2023-02-05T03:26:39.036Z,47.13
2023-02-05T03:29:15.156Z,47.41
2023-02-05T03:32:05.315Z,47.30
2023-02-05T03:35:07.472Z,47.49
2023-02-05T03:38:03.240Z,47.08
2023-02-05T03:40:34.142Z,46.15
2023-02-05T03:43:16.223Z,46.85
2023-02-05T03:46:00.377Z,47.14
2023-02-05T03:48:48.817Z,47.76
2023-02-05T03:51:40.403Z,47.66
2023-02-05T03:54:17.340Z,46.38
2023-02-05T03:57:23.252Z,46.91
2023-02-05T03:59:56.288Z,46.23
2023-02-05T04:02:24.696Z,45.76
2023-02-05T04:04:54.981Z,45.84
2023-02-05T04:07:22.674Z,45.81
2023-02-05T04:09:50.186Z,46.50
2023-02-05T04:12:17.829Z,46.94
2023-02-05T04:14:47.516Z,46.73
2023-02-05T04:17:15.061Z,46.51
2023-02-05T04:19:43.465Z,46.56
2023-02-05T04:22:12.889Z,46.90
2023-02-05T04:24:44.269Z,46.20
2023-02-05T04:27:11.926Z,46.86
2023-02-05T04:29:40.032Z,46.73
2023-02-05T04:32:07.678Z,46.65
2023-02-05T04:34:35.537Z,46.21
2023-02-05T04:37:04.202Z,45.61
2023-02-05T04:39:31.960Z,44.96
2023-02-05T04:41:59.817Z,42.97
2023-02-05T04:44:27.383Z,40.54
2023-02-05T04:46:54.904Z,41.77
2023-02-05T04:49:22.548Z,41.32
2023-02-05T04:51:50.123Z,40.74
2023-02-05T04:54:17.588Z,40.01
2023-02-05T04:56:45.068Z,40.00
2023-02-05T04:59:12.540Z,39.76
2023-02-05T05:01:40.988Z,40.01
2023-02-05T05:04:09.612Z,39.00
2023-02-05T05:06:37.067Z,39.18
2023-02-05T05:09:04.708Z,38.28
2023-02-05T05:11:32.265Z,36.88
2023-02-05T05:13:59.704Z,36.47
2023-02-05T05:16:27.186Z,34.81
2023-02-05T05:18:54.632Z,33.27
2023-02-05T05:21:22.271Z,32.67
2023-02-05T05:23:49.803Z,31.72
2023-02-05T05:26:17.278Z,30.79
2023-02-05T05:28:44.767Z,30.20
2023-02-05T05:31:22.730Z,28.89
2023-02-05T05:33:51.477Z,28.23
2023-02-05T05:36:19.262Z,27.90
2023-02-05T05:38:46.782Z,26.63
2023-02-05T05:41:39.629Z,26.81
2023-02-05T05:44:07.399Z,25.98
2023-02-05T05:46:35.333Z,25.82
2023-02-05T05:49:03.580Z,24.99
2023-02-05T05:51:32.841Z,24.62
2023-02-05T05:54:00.508Z,24.78
2023-02-05T05:56:28.134Z,24.59
2023-02-05T05:58:55.694Z,24.37
2023-02-05T06:01:23.363Z,24.08
2023-02-05T06:03:50.892Z,24.21
2023-02-05T06:06:18.512Z,24.21
2023-02-05T06:08:46.078Z,24.49
2023-02-05T06:11:13.878Z,24.79
2023-02-05T06:13:42.129Z,23.99
2023-02-05T06:16:09.755Z,23.87
2023-02-05T06:18:37.714Z,24.35
2023-02-05T06:21:06.201Z,23.88
2023-02-05T06:23:34.739Z,23.59
2023-02-05T06:26:02.554Z,23.41
2023-02-05T06:28:30.060Z,23.51
2023-02-05T06:30:57.748Z,22.46
2023-02-05T06:33:25.531Z,21.81
2023-02-05T06:35:53.161Z,21.42
2023-02-05T06:38:20.728Z,21.11
2023-02-05T06:40:49.301Z,20.67
2023-02-05T06:43:17.022Z,20.87
2023-02-05T06:45:44.610Z,21.68
2023-02-05T06:48:12.195Z,21.23
2023-02-05T06:50:39.706Z,21.71
2023-02-05T06:53:07.360Z,20.93
2023-02-05T06:55:35.295Z,20.70
2023-02-05T06:58:03.241Z,20.48
2023-02-05T07:00:32.513Z,19.80
2023-02-05T07:03:00.335Z,19.25
2023-02-05T07:05:28.020Z,19.70
2023-02-05T07:07:55.626Z,18.53
2023-02-05T07:10:23.290Z,18.47
2023-02-05T07:12:50.792Z,18.97
2023-02-05T07:15:18.279Z,19.09
2023-02-05T07:17:45.788Z,18.61
2023-02-05T07:20:13.283Z,18.95
2023-02-05T07:22:40.826Z,18.53
2023-02-05T07:25:08.920Z,18.73
2023-02-05T07:27:36.400Z,18.36
2023-02-05T07:30:04.318Z,18.68
2023-02-05T07:32:32.005Z,19.17
2023-02-05T07:34:59.483Z,19.77
2023-02-05T07:37:27.120Z,19.66
2023-02-05T07:39:54.631Z,19.75
2023-02-05T07:42:22.220Z,19.41
2023-02-05T07:44:56.420Z,19.82
2023-02-05T07:47:23.907Z,19.77
2023-02-05T07:49:51.435Z,19.72
2023-02-05T07:52:18.980Z,19.75
2023-02-05T07:54:46.465Z,19.99
2023-02-05T07:57:14.004Z,20.05
2023-02-05T07:59:41.540Z,19.69
2023-02-05T08:02:11.788Z,20.15
2023-02-05T08:04:39.411Z,20.03
2023-02-05T08:07:07.064Z,20.06
2023-02-05T08:09:34.641Z,20.58
2023-02-05T08:12:02.102Z,20.62
2023-02-05T08:14:31.463Z,20.89
2023-02-05T08:16:59.755Z,21.15
2023-02-05T08:19:27.286Z,21.29
2023-02-05T08:21:54.801Z,22.27
2023-02-05T08:24:22.311Z,22.65
2023-02-05T08:26:49.762Z,23.12
2023-02-05T08:29:17.271Z,23.69
2023-02-05T08:31:44.798Z,24.32
2023-02-05T08:34:12.425Z,24.91
2023-02-05T08:36:40.214Z,24.85
2023-02-05T08:39:07.836Z,25.15
2023-02-05T08:41:37.151Z,26.15
2023-02-05T08:44:04.981Z,26.54
2023-02-05T08:46:47.556Z,26.45
2023-02-05T08:49:17.737Z,27.09
2023-02-05T08:51:45.428Z,27.09
2023-02-05T08:54:13.602Z,27.66
2023-02-05T08:56:43.577Z,28.25
2023-02-05T08:59:12.109Z,28.63
2023-02-05T09:01:43.299Z,29.14
2023-02-05T09:04:19.225Z,30.05
2023-02-05T09:06:47.253Z,30.04
2023-02-05T09:09:15.248Z,30.58
2023-02-05T09:11:43.097Z,30.32
2023-02-05T09:14:10.925Z,31.01
2023-02-05T09:16:38.665Z,31.31
2023-02-05T09:19:06.612Z,31.32
2023-02-05T09:21:34.620Z,31.53
2023-02-05T09:24:02.164Z,31.48
2023-02-05T09:26:29.584Z,31.83
2023-02-05T09:28:58.314Z,31.94
2023-02-05T09:31:25.936Z,32.41
2023-02-05T09:33:53.460Z,32.02
2023-02-05T09:36:23.033Z,32.14
2023-02-05T09:38:59.168Z,32.39
2023-02-05T09:41:47.981Z,31.99
2023-02-05T09:44:50.699Z,32.79
2023-02-05T09:47:33.195Z,32.63
2023-02-05T09:50:15.546Z,32.66
2023-02-05T09:52:48.033Z,32.70
2023-02-05T09:55:15.427Z,33.00
2023-02-05T09:57:43.568Z,32.46
2023-02-05T10:00:34.100Z,33.04
2023-02-05T10:03:18.202Z,33.09
2023-02-05T10:06:10.640Z,33.07
2023-02-05T10:08:57.428Z,32.87
2023-02-05T10:11:52.551Z,33.65
2023-02-05T10:14:35.980Z,33.68
2023-02-05T10:17:09.399Z,33.25
2023-02-05T10:19:48.708Z,34.04
2023-02-05T10:22:34.906Z,33.86
2023-02-05T10:25:30.215Z,33.62
2023-02-05T10:28:05.272Z,34.17
2023-02-05T10:30:53.011Z,34.00
2023-02-05T10:33:43.653Z,34.86
2023-02-05T10:36:12.879Z,34.07
2023-02-05T10:38:46.136Z,34.22
2023-02-05T10:41:26.589Z,33.83
2023-02-05T10:44:17.303Z,33.95
2023-02-05T10:46:53.412Z,34.21
2023-02-05T10:49:27.719Z,34.49
2023-02-05T10:51:55.495Z,33.79
2023-02-05T10:54:31.714Z,34.64
2023-02-05T10:57:00.196Z,34.55
2023-02-05T10:59:30.978Z,35.03
2023-02-05T11:02:03.378Z,34.94
2023-02-05T11:04:39.864Z,34.50
2023-02-05T11:07:14.004Z,34.57
2023-02-05T11:09:41.877Z,34.54
2023-02-05T11:12:23.147Z,34.64
2023-02-05T11:14:59.320Z,35.36
2023-02-05T11:17:43.641Z,34.83
2023-02-05T11:20:17.327Z,34.92
2023-02-05T11:22:48.767Z,34.71
2023-02-05T11:25:49.848Z,34.78
2023-02-05T11:28:32.776Z,34.97
2023-02-05T11:31:21.453Z,35.04
2023-02-05T11:34:05.958Z,35.00
2023-02-05T11:36:50.880Z,35.40
2023-02-05T11:39:40.495Z,35.58
2023-02-05T11:42:16.661Z,35.62
2023-02-05T11:44:52.257Z,35.17
2023-02-05T11:47:36.217Z,36.01
2023-02-05T11:50:06.217Z,36.51
2023-02-05T11:52:37.765Z,36.41
2023-02-05T11:55:06.801Z,36.77
2023-02-05T11:57:38.858Z,36.17
2023-02-05T12:00:09.423Z,37.38
2023-02-05T12:02:38.830Z,36.53
2023-02-05T12:05:12.636Z,36.61
2023-02-05T12:07:58.857Z,37.28
2023-02-05T12:10:52.664Z,37.92
2023-02-05T12:13:38.973Z,38.46
2023-02-05T12:16:19.996Z,38.84
2023-02-05T12:19:21.134Z,38.96
2023-02-05T12:22:02.718Z,39.01
2023-02-05T12:24:47.896Z,38.43
2023-02-05T12:28:00.488Z,38.37
2023-02-05T12:30:58.400Z,37.58
2023-02-05T12:33:54.428Z,38.84
2023-02-05T12:36:22.191Z,39.55
2023-02-05T12:39:11.230Z,39.17
2023-02-05T12:41:56.743Z,38.42
2023-02-05T12:44:24.379Z,38.91
2023-02-05T12:47:06.296Z,39.79
2023-02-05T12:49:54.888Z,40.26
2023-02-05T12:52:38.939Z,40.39
2023-02-05T12:55:14.808Z,39.87
2023-02-05T12:57:49.408Z,40.65
2023-02-05T13:00:33.218Z,41.08
2023-02-05T13:03:18.956Z,41.32
2023-02-05T13:05:52.598Z,42.90
2023-02-05T13:08:49.426Z,42.08
2023-02-05T13:11:42.173Z,42.87
2023-02-05T13:14:14.833Z,42.80
2023-02-05T13:17:05.370Z,42.96
2023-02-05T13:19:41.419Z,43.96
2023-02-05T13:22:37.318Z,43.60
2023-02-05T13:26:00.955Z,42.26
2023-02-05T13:28:43.495Z,43.05
2023-02-05T13:31:29.779Z,44.49
2023-02-05T13:34:03.963Z,44.50
2023-02-05T13:37:02.357Z,44.85
2023-02-05T13:39:48.636Z,45.47
2023-02-05T13:42:19.098Z,45.17
2023-02-05T13:45:05.354Z,46.32
2023-02-05T13:47:57.234Z,45.83
2023-02-05T13:50:33.948Z,45.66
2023-02-05T13:53:38.842Z,45.01
2023-02-05T13:56:47.627Z,44.94
2023-02-05T13:59:23.850Z,44.74
2023-02-05T14:01:56.536Z,44.54
2023-02-05T14:04:55.090Z,46.25
2023-02-05T14:07:30.049Z,45.53
2023-02-05T14:10:01.409Z,45.78
2023-02-05T14:12:41.050Z,44.88
2023-02-05T14:15:20.344Z,44.80
2023-02-05T14:17:47.865Z,44.53
2023-02-05T14:20:44.923Z,43.93
2023-02-05T14:23:37.920Z,42.86
2023-02-05T14:26:08.671Z,43.41
2023-02-05T14:28:44.479Z,44.14
2023-02-05T14:31:49.388Z,43.91
2023-02-05T14:34:45.411Z,44.39
2023-02-05T14:37:32.668Z,44.58
2023-02-05T14:40:27.386Z,44.06
2023-02-05T14:43:15.856Z,43.86
2023-02-05T14:45:54.209Z,44.01
2023-02-05T14:48:45.744Z,45.61
2023-02-05T14:51:28.230Z,45.40
2023-02-05T14:54:02.360Z,45.50
2023-02-05T14:56:49.161Z,45.86
2023-02-05T14:59:57.083Z,45.07
2023-02-05T15:06:42.965Z,44.36
2023-02-05T15:09:34.522Z,45.50
2023-02-05T15:12:23.388Z,45.89
2023-02-05T15:15:00.882Z,45.80
2023-02-05T15:17:35.617Z,45.45
2023-02-05T15:20:21.507Z,46.21
2023-02-05T15:23:01.156Z,46.58
2023-02-05T15:26:16.164Z,46.17
2023-02-05T15:29:20.760Z,46.29
2023-02-05T15:32:29.956Z,46.30
2023-02-05T15:35:05.495Z,46.61
2023-02-05T15:37:41.348Z,47.26
2023-02-05T15:40:33.859Z,47.41
2023-02-05T15:43:12.500Z,46.74
2023-02-05T15:45:45.281Z,46.86
2023-02-05T15:48:25.154Z,47.63
2023-02-05T15:51:03.269Z,47.35
2023-02-05T15:53:37.540Z,46.73
2023-02-05T15:56:29.967Z,47.44
2023-02-05T15:59:02.320Z,46.67
2023-02-05T16:01:36.772Z,46.46
2023-02-05T16:04:18.181Z,45.78
2023-02-05T16:06:45.952Z,44.98
2023-02-05T16:09:25.381Z,46.78
2023-02-05T16:12:25.659Z,47.61
2023-02-05T16:15:01.800Z,46.69
2023-02-05T16:17:36.588Z,45.60
2023-02-05T16:20:36.629Z,45.81
2023-02-05T16:23:36.781Z,45.72
2023-02-05T16:26:15.645Z,45.00
2023-02-05T16:28:54.686Z,44.35
2023-02-05T16:31:25.644Z,44.31
2023-02-05T16:33:55.583Z,44.01
2023-02-05T16:36:26.115Z,43.51
2023-02-05T16:39:15.176Z,43.42
2023-02-05T16:42:26.912Z,42.73
2023-02-05T16:45:11.095Z,43.29
2023-02-05T16:47:38.856Z,42.78
2023-02-05T16:50:44.792Z,43.01
2023-02-05T16:53:21.325Z,43.02
2023-02-05T16:55:50.307Z,42.08
2023-02-05T16:58:24.050Z,42.49
2023-02-05T17:00:57.763Z,42.28
2023-02-05T17:03:28.389Z,42.15
2023-02-05T17:06:00.439Z,42.76
2023-02-05T17:08:37.502Z,42.75
2023-02-05T17:11:07.749Z,42.25
2023-02-05T17:13:42.311Z,42.29
2023-02-05T17:16:18.974Z,42.13
2023-02-05T17:19:01.354Z,42.21
2023-02-05T17:21:34.378Z,42.18
2023-02-05T17:24:05.357Z,42.27
2023-02-05T17:26:35.351Z,41.95
2023-02-05T17:29:07.470Z,41.59
2023-02-05T17:31:42.550Z,41.80
2023-02-05T17:34:12.212Z,41.39
2023-02-05T17:36:39.994Z,41.36
2023-02-05T17:39:07.544Z,41.12
2023-02-05T17:41:58.458Z,41.89
2023-02-05T17:44:37.144Z,41.73
2023-02-05T17:47:06.903Z,41.55
2023-02-05T17:49:34.418Z,41.21
2023-02-05T17:52:02.084Z,41.29
2023-02-05T17:54:51.388Z,41.25
2023-02-05T17:57:24.756Z,41.25
2023-02-05T17:59:52.509Z,41.31
2023-02-05T18:02:22.965Z,41.43
2023-02-05T18:04:50.732Z,40.78
2023-02-05T18:07:36.034Z,41.52
2023-02-05T18:10:06.157Z,41.05
2023-02-05T18:12:34.305Z,40.54
2023-02-05T18:15:01.872Z,40.60
2023-02-05T18:17:31.164Z,40.75
2023-02-05T18:19:58.718Z,40.94
2023-02-05T18:22:26.763Z,41.13
2023-02-05T18:24:54.412Z,40.89
2023-02-05T18:27:22.032Z,40.86
2023-02-05T18:29:49.592Z,40.55
2023-02-05T18:32:17.188Z,41.10
2023-02-05T18:34:44.675Z,40.43
2023-02-05T18:37:14.404Z,40.83
2023-02-05T18:39:43.946Z,41.09
2023-02-05T18:42:13.096Z,41.28
2023-02-05T18:44:43.243Z,41.32
2023-02-05T18:47:11.716Z,41.34
2023-02-05T18:49:39.273Z,40.83
2023-02-05T18:52:07.475Z,40.71
2023-02-05T18:54:35.069Z,40.91
2023-02-05T18:57:02.790Z,40.64
2023-02-05T18:59:30.237Z,40.82
2023-02-05T19:01:57.816Z,40.53
2023-02-05T19:04:27.195Z,40.56
2023-02-05T19:06:55.198Z,40.30
2023-02-05T19:09:25.433Z,40.39
2023-02-05T19:11:54.825Z,40.34
2023-02-05T19:14:24.383Z,40.56
2023-02-05T19:16:53.316Z,40.66
2023-02-05T19:19:26.285Z,41.22
2023-02-05T19:22:02.224Z,40.88
2023-02-05T19:24:29.996Z,40.87
2023-02-05T19:26:59.298Z,40.87
2023-02-05T19:29:27.700Z,40.93
2023-02-05T19:31:57.515Z,41.26
2023-02-05T19:34:27.953Z,40.43
2023-02-05T19:36:55.511Z,40.80
2023-02-05T19:39:23.158Z,41.26
2023-02-05T19:41:52.246Z,41.27
2023-02-05T19:44:20.182Z,41.37
2023-02-05T19:46:49.123Z,41.16
2023-02-05T19:49:19.749Z,40.89
2023-02-05T19:51:49.727Z,41.00
2023-02-05T19:54:21.152Z,40.73
2023-02-05T19:56:49.810Z,40.84
2023-02-05T19:59:17.502Z,41.30
2023-02-05T20:01:45.993Z,41.75
2023-02-05T20:04:17.596Z,41.58
2023-02-05T20:06:46.900Z,41.34
2023-02-05T20:09:16.358Z,41.86
2023-02-05T20:11:46.627Z,41.04
2023-02-05T20:14:15.012Z,41.37
2023-02-05T20:16:45.392Z,41.49
2023-02-05T20:19:15.690Z,41.50
2023-02-05T20:21:43.823Z,41.33
2023-02-05T20:24:11.679Z,41.42
2023-02-05T20:26:39.823Z,41.44
2023-02-05T20:29:26.952Z,41.33
2023-02-05T20:31:55.263Z,41.23
2023-02-05T20:34:26.138Z,41.42
2023-02-05T20:37:04.539Z,41.72
2023-02-05T20:39:35.088Z,41.40
2023-02-05T20:42:03.105Z,41.28
2023-02-05T20:44:36.533Z,41.11
2023-02-05T20:47:06.131Z,41.75
2023-02-05T20:49:40.458Z,41.40
2023-02-05T20:52:09.377Z,41.44
2023-02-05T20:54:36.947Z,41.47
2023-02-05T20:57:04.763Z,41.27
2023-02-05T20:59:33.439Z,41.55
2023-02-05T21:02:02.921Z,40.90
2023-02-05T21:04:30.865Z,41.66
2023-02-05T21:06:58.796Z,41.38
2023-02-05T21:09:26.373Z,41.39
2023-02-05T21:11:55.820Z,41.76
2023-02-05T21:14:24.035Z,41.79
2023-02-05T21:16:51.656Z,41.59
2023-02-05T21:19:19.686Z,41.48
2023-02-05T21:21:47.261Z,41.36
2023-02-05T21:24:15.711Z,41.94
2023-02-05T21:26:48.974Z,41.52
2023-02-05T21:29:19.676Z,41.76
2023-02-05T21:31:53.400Z,42.03
2023-02-05T21:34:23.677Z,41.60
2023-02-05T21:36:51.810Z,41.71
2023-02-05T21:39:22.406Z,41.87
2023-02-05T21:41:54.504Z,42.06
2023-02-05T21:44:22.532Z,42.04
2023-02-05T21:46:50.170Z,42.12
2023-02-05T21:49:17.750Z,42.26
2023-02-05T21:51:45.303Z,42.01
2023-02-05T21:54:12.801Z,42.08
2023-02-05T21:56:44.193Z,42.71
2023-02-05T21:59:13.272Z,42.27
2023-02-05T22:01:42.738Z,42.30
2023-02-05T22:04:16.180Z,42.45
2023-02-05T22:06:44.569Z,42.01
2023-02-05T22:09:14.397Z,42.37
2023-02-05T22:11:42.677Z,42.54
2023-02-05T22:14:11.072Z,42.29
2023-02-05T22:16:38.943Z,42.28
2023-02-05T22:19:07.292Z,42.39
2023-02-05T22:21:40.749Z,42.48
2023-02-05T22:24:11.370Z,42.34
2023-02-05T22:26:39.721Z,42.52
2023-02-05T22:29:09.010Z,42.58
2023-02-05T22:31:36.813Z,42.46
2023-02-05T22:34:05.062Z,42.82
2023-02-05T22:36:34.280Z,42.57
2023-02-05T22:39:02.649Z,42.54
2023-02-05T22:41:36.499Z,42.61
2023-02-05T22:44:05.722Z,42.51
2023-02-05T22:46:36.145Z,42.43
2023-02-05T22:49:04.114Z,42.36
2023-02-05T22:51:34.849Z,43.16
2023-02-05T22:54:03.287Z,42.99
2023-02-05T22:56:30.989Z,43.01
2023-02-05T22:59:01.377Z,42.96
2023-02-05T23:01:33.549Z,42.82
2023-02-05T23:04:03.328Z,42.76
2023-02-05T23:06:36.875Z,42.86
2023-02-05T23:09:12.422Z,42.85
2023-02-05T23:11:40.389Z,43.28
2023-02-05T23:14:08.693Z,43.92
2023-02-05T23:16:40.711Z,43.54
2023-02-05T23:19:11.894Z,43.64
2023-02-05T23:21:40.854Z,43.76
2023-02-05T23:24:09.450Z,44.08
2023-02-05T23:26:42.142Z,44.24
2023-02-05T23:29:12.651Z,43.80
2023-02-05T23:31:41.014Z,43.50
2023-02-05T23:34:08.732Z,43.28
2023-02-05T23:36:36.707Z,43.80
2023-02-05T23:39:04.818Z,43.28
2023-02-05T23:41:38.241Z,43.27
2023-02-05T23:44:12.165Z,43.61
2023-02-05T23:46:40.512Z,43.05
2023-02-05T23:49:08.351Z,43.32
2023-02-05T23:51:36.607Z,43.74
2023-02-05T23:54:05.715Z,44.02
2023-02-05T23:56:33.618Z,44.14
2023-02-05T23:59:01.954Z,44.50
